createdAt,value
2022-09-01T00:01:39.201Z,100.00
2022-09-01T00:04:08.881Z,100.00
2022-09-01T00:06:40.861Z,100.00
2022-09-01T00:09:13.478Z,100.00
2022-09-01T00:11:42.431Z,100.00
2022-09-01T00:14:29.320Z,100.00
2022-09-01T00:16:58.884Z,100.00
2022-09-01T00:19:26.552Z,100.00
2022-09-01T00:21:55.392Z,100.00
2022-09-01T00:24:25.975Z,100.00
2022-09-01T00:26:54.556Z,100.00
2022-09-01T00:29:22.405Z,100.00
2022-09-01T00:31:50.626Z,100.00
2022-09-01T00:34:18.452Z,100.00
2022-09-01T00:36:46.258Z,100.00
2022-09-01T00:39:16.814Z,100.00
2022-09-01T00:41:46.972Z,100.00
2022-09-01T00:44:17.179Z,100.00
2022-09-01T00:46:49.910Z,100.00
2022-09-01T00:49:29.643Z,100.00
2022-09-01T00:52:02.430Z,100.00
2022-09-01T00:54:34.969Z,100.00
2022-09-01T00:57:04.440Z,100.00
2022-09-01T00:59:33.148Z,100.00
2022-09-01T01:02:00.811Z,100.00
2022-09-01T01:04:30.179Z,100.00
2022-09-01T01:07:02.194Z,100.00
2022-09-01T01:09:35.677Z,100.00
2022-09-01T01:12:06.309Z,100.00
2022-09-01T01:14:36.889Z,100.00
2022-09-01T01:17:05.064Z,100.00
2022-09-01T01:19:59.867Z,100.00
2022-09-01T01:22:58.007Z,100.00
2022-09-01T01:25:26.918Z,100.00
2022-09-01T01:28:05.369Z,100.00
2022-09-01T01:30:36.867Z,100.00
2022-09-01T01:33:05.662Z,100.00
2022-09-01T01:35:34.040Z,100.00
2022-09-01T01:38:03.593Z,100.00
2022-09-01T01:40:32.482Z,100.00
2022-09-01T01:43:01.192Z,100.00
2022-09-01T01:45:30.095Z,100.00
2022-09-01T01:47:57.721Z,100.00
2022-09-01T01:50:29.603Z,100.00
2022-09-01T01:53:00.034Z,100.00
2022-09-01T01:55:28.923Z,100.00
2022-09-01T01:57:59.101Z,100.00
2022-09-01T02:00:30.928Z,100.00
2022-09-01T02:02:58.900Z,100.00
2022-09-01T02:05:29.865Z,100.00
2022-09-01T02:08:01.713Z,100.00
2022-09-01T02:10:31.545Z,100.00
2022-09-01T02:13:05.883Z,100.00
2022-09-01T02:15:44.165Z,100.00
2022-09-01T02:18:14.209Z,100.00
2022-09-01T02:20:42.105Z,100.00
2022-09-01T02:23:10.694Z,100.00
2022-09-01T02:26:05.070Z,100.00
2022-09-01T02:28:36.820Z,100.00
2022-09-01T02:31:08.935Z,100.00
2022-09-01T02:33:39.216Z,100.00
2022-09-01T02:36:09.556Z,100.00
2022-09-01T02:38:38.795Z,100.00
2022-09-01T02:41:07.920Z,100.00
2022-09-01T02:43:36.752Z,100.00
2022-09-01T02:46:06.270Z,100.00
2022-09-01T02:48:37.293Z,100.00
2022-09-01T02:51:08.402Z,100.00
2022-09-01T02:53:36.760Z,100.00
2022-09-01T02:56:09.472Z,100.00
2022-09-01T02:58:45.966Z,100.00
2022-09-01T03:01:22.614Z,100.00
2022-09-01T03:03:51.601Z,100.00
2022-09-01T03:06:24.033Z,100.00
2022-09-01T03:08:52.942Z,100.00
2022-09-01T03:11:20.597Z,100.00
2022-09-01T03:13:49.431Z,100.00
2022-09-01T03:16:17.104Z,100.00
2022-09-01T03:18:44.607Z,100.00
2022-09-01T03:21:16.994Z,100.00
2022-09-01T03:23:45.713Z,100.00
2022-09-01T03:26:14.143Z,100.00
2022-09-01T03:28:42.107Z,100.00
2022-09-01T03:31:11.034Z,100.00
2022-09-01T03:33:38.807Z,100.00
2022-09-01T03:36:14.916Z,100.00
2022-09-01T03:38:44.054Z,100.00
2022-09-01T03:41:13.163Z,100.00
2022-09-01T03:43:47.015Z,100.00
2022-09-01T03:46:20.173Z,100.00
2022-09-01T03:48:49.022Z,100.00
2022-09-01T03:51:16.616Z,100.00
2022-09-01T03:53:45.197Z,100.00
2022-09-01T03:56:14.028Z,100.00
2022-09-01T03:58:44.964Z,100.00
2022-09-01T04:01:13.928Z,100.00
2022-09-01T04:03:46.865Z,100.00
2022-09-01T04:06:14.979Z,100.00
2022-09-01T04:08:42.974Z,100.00
2022-09-01T04:11:16.396Z,100.00
2022-09-01T04:13:43.965Z,100.00
2022-09-01T04:16:33.627Z,100.00
2022-09-01T04:19:08.154Z,100.00
2022-09-01T04:21:35.654Z,100.00
2022-09-01T04:24:05.573Z,100.00
2022-09-01T04:26:33.824Z,100.00
2022-09-01T04:29:01.361Z,100.00
2022-09-01T04:31:30.784Z,100.00
2022-09-01T04:33:58.384Z,100.00
2022-09-01T04:36:30.704Z,100.00
2022-09-01T04:39:00.688Z,100.00
2022-09-01T04:41:31.470Z,100.00
2022-09-01T04:44:01.347Z,100.00
2022-09-01T04:46:31.288Z,100.00
2022-09-01T04:48:59.578Z,100.00
2022-09-01T04:51:28.409Z,100.00
2022-09-01T04:53:57.402Z,100.00
2022-09-01T04:56:27.817Z,100.00
2022-09-01T04:58:55.874Z,100.00
2022-09-01T05:01:25.499Z,100.00
2022-09-01T05:04:01.369Z,100.00
2022-09-01T05:06:34.533Z,100.00
2022-09-01T05:09:02.037Z,100.00
2022-09-01T05:11:29.509Z,100.00
2022-09-01T05:13:57.778Z,100.00
2022-09-01T05:16:25.936Z,100.00
2022-09-01T05:18:56.860Z,100.00
2022-09-01T05:21:28.231Z,100.00
2022-09-01T05:24:00.684Z,100.00
2022-09-01T05:26:31.456Z,100.00
2022-09-01T05:29:01.777Z,100.00
2022-09-01T05:31:37.493Z,100.00
2022-09-01T05:34:05.416Z,100.00
2022-09-01T05:36:33.508Z,100.00
2022-09-01T05:39:03.175Z,100.00
2022-09-01T05:41:30.754Z,100.00
2022-09-01T05:44:00.874Z,100.00
2022-09-01T05:46:29.800Z,100.00
2022-09-01T05:48:59.401Z,100.00
2022-09-01T05:51:46.296Z,100.00
2022-09-01T05:54:21.476Z,100.00
2022-09-01T05:56:49.820Z,100.00
2022-09-01T05:59:26.102Z,100.00
2022-09-01T06:01:55.009Z,100.00
2022-09-01T06:04:25.262Z,100.00
2022-09-01T06:07:10.257Z,100.00
2022-09-01T06:09:44.107Z,100.00
2022-09-01T06:12:17.396Z,100.00
2022-09-01T06:14:45.812Z,100.00
2022-09-01T06:17:16.259Z,100.00
2022-09-01T06:19:44.312Z,100.00
2022-09-01T06:22:12.203Z,100.00
2022-09-01T06:24:43.643Z,100.00
2022-09-01T06:27:13.176Z,100.00
2022-09-01T06:29:41.642Z,100.00
2022-09-01T06:32:10.686Z,100.00
2022-09-01T06:34:42.344Z,100.00
2022-09-01T06:37:10.861Z,100.00
2022-09-01T06:39:38.606Z,100.00
2022-09-01T06:42:09.468Z,100.00
2022-09-01T06:44:40.593Z,100.00
2022-09-01T06:47:09.031Z,100.00
2022-09-01T06:49:40.237Z,100.00
2022-09-01T06:52:07.755Z,100.00
2022-09-01T06:54:39.113Z,100.00
2022-09-01T06:59:56.051Z,100.00
2022-09-01T07:02:27.096Z,100.00
2022-09-01T07:04:55.108Z,100.00
2022-09-01T07:10:21.290Z,100.00
2022-09-01T07:13:08.627Z,100.00
2022-09-01T07:18:30.736Z,100.00
2022-09-01T07:21:36.115Z,100.00
2022-09-01T07:24:06.068Z,100.00
2022-09-01T07:26:35.946Z,100.00
2022-09-01T07:29:07.092Z,100.00
2022-09-01T07:34:46.228Z,100.00
2022-09-01T07:38:46.848Z,100.00
2022-09-01T07:43:12.786Z,100.00
2022-09-01T07:45:47.718Z,100.00
2022-09-01T07:49:01.051Z,100.00
2022-09-01T07:51:35.643Z,100.00
2022-09-01T07:53:55.694Z,100.00
2022-09-01T07:56:25.804Z,100.00
2022-09-01T07:58:53.831Z,100.00
2022-09-01T08:01:26.053Z,100.00
2022-09-01T08:03:55.585Z,100.00
2022-09-01T08:06:27.215Z,100.00
2022-09-01T08:08:57.952Z,100.00
2022-09-01T08:11:58.124Z,100.00
2022-09-01T08:14:18.187Z,100.00
2022-09-01T08:16:54.588Z,100.00
2022-09-01T08:19:23.002Z,100.00
2022-09-01T08:21:50.531Z,100.00
2022-09-01T08:24:19.134Z,100.00
2022-09-01T08:26:46.641Z,100.00
2022-09-01T08:29:14.107Z,100.00
2022-09-01T08:31:41.669Z,100.00
2022-09-01T08:34:12.701Z,100.00
2022-09-01T08:36:40.211Z,100.00
2022-09-01T08:39:07.666Z,97.92
2022-09-01T08:41:46.409Z,88.65
2022-09-01T08:44:25.496Z,84.69
2022-09-01T08:46:58.837Z,85.80
2022-09-01T08:49:28.257Z,83.46
2022-09-01T08:52:02.363Z,78.47
2022-09-01T08:54:36.468Z,82.50
2022-09-01T08:57:09.664Z,74.71
2022-09-01T08:59:37.287Z,72.92
2022-09-01T09:02:24.335Z,78.34
2022-09-01T09:05:15.478Z,83.50
2022-09-01T09:08:07.006Z,84.87
2022-09-01T09:10:43.571Z,83.08
2022-09-01T09:13:18.547Z,86.50
2022-09-01T09:16:06.912Z,86.34
2022-09-01T09:18:54.678Z,84.72
2022-09-01T09:21:30.113Z,75.71
2022-09-01T09:24:01.852Z,75.27
2022-09-01T09:26:42.253Z,68.38
2022-09-01T09:29:09.966Z,61.72
2022-09-01T09:31:43.637Z,59.13
2022-09-01T09:34:19.517Z,62.06
2022-09-01T09:36:54.603Z,65.67
2022-09-01T09:39:23.204Z,66.27
2022-09-01T09:42:09.386Z,64.23
2022-09-01T09:44:44.165Z,60.59
2022-09-01T09:47:33.373Z,53.90
2022-09-01T09:50:14.799Z,58.91
2022-09-01T09:52:46.828Z,73.06
2022-09-01T09:55:24.168Z,85.40
2022-09-01T09:57:54.249Z,81.14
2022-09-01T10:00:25.560Z,74.29
2022-09-01T10:02:57.212Z,59.51
2022-09-01T10:05:40.252Z,52.82
2022-09-01T10:08:11.605Z,47.97
2022-09-01T10:10:42.945Z,46.27
2022-09-01T10:13:13.972Z,46.13
2022-09-01T10:15:44.907Z,49.21
2022-09-01T10:18:32.056Z,50.07
2022-09-01T10:21:02.273Z,52.26
2022-09-01T10:23:37.005Z,48.98
2022-09-01T10:26:10.399Z,49.54
2022-09-01T10:28:49.893Z,50.72
2022-09-01T10:31:19.138Z,54.12
2022-09-01T10:33:47.113Z,57.78
2022-09-01T10:36:16.754Z,57.70
2022-09-01T10:38:53.961Z,57.29
2022-09-01T10:41:48.207Z,62.27
2022-09-01T10:44:21.083Z,65.58
2022-09-01T10:46:51.058Z,66.17
2022-09-01T10:49:38.852Z,66.76
2022-09-01T10:52:13.059Z,61.90
2022-09-01T10:55:00.185Z,58.08
2022-09-01T10:58:07.810Z,60.15
2022-09-01T11:04:00.664Z,61.29
2022-09-01T11:07:13.896Z,59.28
2022-09-01T11:09:43.872Z,60.05
2022-09-01T11:12:45.025Z,59.32
2022-09-01T11:15:36.657Z,58.65
2022-09-01T11:18:11.584Z,54.62
2022-09-01T11:20:42.661Z,55.88
2022-09-01T11:23:14.930Z,53.76
2022-09-01T11:25:45.643Z,51.25
2022-09-01T11:28:41.814Z,47.66
2022-09-01T11:31:28.953Z,44.72
2022-09-01T11:34:04.076Z,43.40
2022-09-01T11:36:35.998Z,43.69
2022-09-01T11:39:16.068Z,46.58
2022-09-01T11:41:57.506Z,47.15
2022-09-01T11:44:37.213Z,45.49
2022-09-01T11:47:13.665Z,46.21
2022-09-01T11:49:49.945Z,45.89
2022-09-01T11:52:19.408Z,44.89
2022-09-01T11:54:47.400Z,43.09
2022-09-01T11:57:35.021Z,40.48
2022-09-01T12:00:07.849Z,38.54
2022-09-01T12:02:37.471Z,39.79
2022-09-01T12:05:25.934Z,39.44
2022-09-01T12:07:53.975Z,38.71
2022-09-01T12:10:34.133Z,33.09
2022-09-01T12:13:04.400Z,33.18
2022-09-01T12:15:35.056Z,34.33
2022-09-01T12:18:16.977Z,37.02
2022-09-01T12:20:44.492Z,39.21
2022-09-01T12:23:20.441Z,40.49
2022-09-01T12:25:48.279Z,40.88
2022-09-01T12:28:16.876Z,40.23
2022-09-01T12:30:46.014Z,40.88
2022-09-01T12:33:23.632Z,41.57
2022-09-01T12:35:53.211Z,42.20
2022-09-01T12:38:25.830Z,42.93
2022-09-01T12:40:55.514Z,41.95
2022-09-01T12:43:36.887Z,44.63
2022-09-01T12:46:07.101Z,43.85
2022-09-01T12:48:36.721Z,43.88
2022-09-01T12:51:09.380Z,43.98
2022-09-01T12:53:37.261Z,44.56
2022-09-01T12:56:19.720Z,45.83
2022-09-01T12:58:54.376Z,45.54
2022-09-01T13:01:29.946Z,44.57
2022-09-01T13:04:17.294Z,43.78
2022-09-01T13:06:44.775Z,42.58
2022-09-01T13:09:12.333Z,39.18
2022-09-01T13:14:28.438Z,36.70
2022-09-01T13:16:57.890Z,36.13
2022-09-01T13:19:28.841Z,34.35
2022-09-01T13:21:58.242Z,36.18
2022-09-01T13:24:29.328Z,37.88
2022-09-01T13:29:46.503Z,35.76
2022-09-01T13:32:18.721Z,35.81
2022-09-01T13:34:47.710Z,37.33
2022-09-01T13:37:15.703Z,39.29
2022-09-01T13:39:43.205Z,37.95
2022-09-01T13:42:10.720Z,39.69
2022-09-01T13:44:38.591Z,42.68
2022-09-01T13:50:12.024Z,46.84
2022-09-01T13:52:41.363Z,47.80
2022-09-01T13:55:12.914Z,47.89
2022-09-01T13:57:40.547Z,49.47
2022-09-01T14:00:11.643Z,50.02
2022-09-01T14:02:40.605Z,48.99
2022-09-01T14:05:10.548Z,51.08
2022-09-01T14:07:38.136Z,51.48
2022-09-01T14:10:07.498Z,50.42
2022-09-01T14:12:35.452Z,49.89
2022-09-01T14:15:12.249Z,49.30
2022-09-01T14:17:42.892Z,48.02
2022-09-01T14:20:15.991Z,48.86
2022-09-01T14:22:43.575Z,47.73
2022-09-01T14:25:12.045Z,47.33
2022-09-01T14:27:41.067Z,44.33
2022-09-01T14:30:12.035Z,41.48
2022-09-01T14:32:39.643Z,38.34
2022-09-01T14:35:09.002Z,36.37
2022-09-01T14:37:39.178Z,35.09
2022-09-01T14:40:08.875Z,34.39
2022-09-01T14:42:37.162Z,32.99
2022-09-01T14:45:04.962Z,31.65
2022-09-01T14:47:32.496Z,31.21
2022-09-01T14:50:02.378Z,31.33
2022-09-01T14:52:30.588Z,36.34
2022-09-01T14:54:59.629Z,38.45
2022-09-01T14:57:31.301Z,38.73
2022-09-01T15:00:07.293Z,41.89
2022-09-01T15:02:34.793Z,43.30
2022-09-01T15:05:02.332Z,43.32
2022-09-01T15:07:29.964Z,43.99
2022-09-01T15:09:58.870Z,46.20
2022-09-01T15:12:30.825Z,47.92
2022-09-01T15:14:58.823Z,46.18
2022-09-01T15:17:26.647Z,46.84
2022-09-01T15:19:54.168Z,47.38
2022-09-01T15:22:22.041Z,48.69
2022-09-01T15:24:49.535Z,48.44
2022-09-01T15:27:18.356Z,47.61
2022-09-01T15:29:47.909Z,47.32
2022-09-01T15:32:27.341Z,46.30
2022-09-01T15:34:55.205Z,46.66
2022-09-01T15:37:22.753Z,47.07
2022-09-01T15:39:50.231Z,46.46
2022-09-01T15:42:19.054Z,46.83
2022-09-01T15:44:47.302Z,46.38
2022-09-01T15:47:14.820Z,45.73
2022-09-01T15:49:42.375Z,46.22
2022-09-01T15:52:11.219Z,47.77
2022-09-01T15:54:39.869Z,49.04
2022-09-01T15:57:08.962Z,48.24
2022-09-01T15:59:40.028Z,49.30
2022-09-01T16:02:09.692Z,48.59
2022-09-01T16:04:37.580Z,50.01
2022-09-01T16:07:05.269Z,50.70
2022-09-01T16:09:32.909Z,53.95
2022-09-01T16:12:00.450Z,54.64
2022-09-01T16:14:28.276Z,54.53
2022-09-01T16:17:04.164Z,54.22
2022-09-01T16:19:38.570Z,54.13
2022-09-01T16:22:12.899Z,52.45
2022-09-01T16:24:43.396Z,49.71
2022-09-01T16:27:14.717Z,47.92
2022-09-01T16:29:47.796Z,48.33
2022-09-01T16:32:18.511Z,46.30
2022-09-01T16:34:47.964Z,45.94
2022-09-01T16:37:25.279Z,46.18
2022-09-01T16:40:01.044Z,46.37
2022-09-01T16:42:37.635Z,46.23
2022-09-01T16:45:11.829Z,46.85
2022-09-01T16:48:00.039Z,47.28
2022-09-01T16:50:38.571Z,48.50
2022-09-01T16:53:18.703Z,48.70
2022-09-01T16:55:59.562Z,48.43
2022-09-01T16:58:36.549Z,54.17
2022-09-01T17:01:23.028Z,53.77
2022-09-01T17:04:01.495Z,56.99
2022-09-01T17:06:32.046Z,56.36
2022-09-01T17:09:10.026Z,58.22
2022-09-01T17:11:49.205Z,57.98
2022-09-01T17:14:27.762Z,58.44
2022-09-01T17:17:03.152Z,59.47
2022-09-01T17:19:32.346Z,62.48
2022-09-01T17:22:05.308Z,63.79
2022-09-01T17:24:38.450Z,65.62
2022-09-01T17:27:13.997Z,67.17
2022-09-01T17:29:44.819Z,68.56
2022-09-01T17:32:21.806Z,72.41
2022-09-01T17:35:02.612Z,78.01
2022-09-01T17:37:39.270Z,80.18
2022-09-01T17:40:15.277Z,85.57
2022-09-01T17:42:49.644Z,85.28
2022-09-01T17:45:28.839Z,88.82
2022-09-01T17:48:07.576Z,90.81
2022-09-01T17:50:50.832Z,93.04
2022-09-01T17:53:28.680Z,100.00
2022-09-01T17:56:02.736Z,100.00
2022-09-01T17:58:44.116Z,100.00
2022-09-01T18:01:20.606Z,97.95
2022-09-01T18:04:26.763Z,84.74
2022-09-01T18:07:04.023Z,74.04
2022-09-01T18:09:35.758Z,74.63
2022-09-01T18:12:09.745Z,70.38
2022-09-01T18:14:43.197Z,70.31
2022-09-01T18:17:15.768Z,66.31
2022-09-01T18:19:46.643Z,66.33
2022-09-01T18:22:19.724Z,65.05
2022-09-01T18:24:54.319Z,66.18
2022-09-01T18:27:24.203Z,66.12
2022-09-01T18:29:52.959Z,66.08
2022-09-01T18:32:36.762Z,65.41
2022-09-01T18:35:23.982Z,65.01
2022-09-01T18:38:04.776Z,63.96
2022-09-01T18:40:38.368Z,65.56
2022-09-01T18:43:16.707Z,65.05
2022-09-01T18:45:49.538Z,63.90
2022-09-01T18:48:28.473Z,65.46
2022-09-01T18:51:03.397Z,64.33
2022-09-01T18:53:42.451Z,62.92
2022-09-01T18:56:20.555Z,65.44
2022-09-01T18:59:00.412Z,65.46
2022-09-01T19:01:34.395Z,66.59
2022-09-01T19:04:15.128Z,66.41
2022-09-01T19:06:52.969Z,64.21
2022-09-01T19:09:29.552Z,66.26
2022-09-01T19:12:10.496Z,65.61
2022-09-01T19:14:46.258Z,65.73
2022-09-01T19:17:42.815Z,64.97
2022-09-01T19:20:12.561Z,63.86
2022-09-01T19:22:46.045Z,64.89
2022-09-01T19:25:36.632Z,65.05
2022-09-01T19:28:14.309Z,67.25
2022-09-01T19:30:46.006Z,65.96
2022-09-01T19:33:17.314Z,65.96
2022-09-01T19:35:48.059Z,69.68
2022-09-01T19:38:23.728Z,70.15
2022-09-01T19:40:54.646Z,70.51
2022-09-01T19:43:23.803Z,71.87
2022-09-01T19:46:03.564Z,71.97
2022-09-01T19:48:36.208Z,70.72
2022-09-01T19:51:09.508Z,69.54
2022-09-01T19:53:46.169Z,69.30
2022-09-01T19:56:19.952Z,70.94
2022-09-01T19:58:57.305Z,76.15
2022-09-01T20:01:38.633Z,80.43
2022-09-01T20:04:18.080Z,80.36
2022-09-01T20:06:52.098Z,90.12
2022-09-01T20:09:24.779Z,94.66
2022-09-01T20:11:58.467Z,98.75
2022-09-01T20:14:41.616Z,93.86
2022-09-01T20:17:15.737Z,98.93
2022-09-01T20:19:48.604Z,99.23
2022-09-01T20:22:31.151Z,99.00
2022-09-01T20:25:08.336Z,97.49
2022-09-01T20:27:46.850Z,95.97
2022-09-01T20:30:19.416Z,96.67
2022-09-01T20:32:53.199Z,96.25
2022-09-01T20:35:24.531Z,100.00
2022-09-01T20:37:58.694Z,100.00
2022-09-01T20:40:30.735Z,100.00
2022-09-01T20:43:14.807Z,100.00
2022-09-01T20:45:42.650Z,100.00
2022-09-01T20:48:14.282Z,100.00
2022-09-01T20:50:51.590Z,100.00
2022-09-01T20:53:36.601Z,100.00
2022-09-01T20:56:12.152Z,100.00
2022-09-01T20:58:45.379Z,100.00
2022-09-01T21:01:19.183Z,100.00
2022-09-01T21:04:00.736Z,100.00
2022-09-01T21:06:45.705Z,100.00
2022-09-01T21:09:19.917Z,100.00
2022-09-01T21:11:59.484Z,100.00
2022-09-01T21:14:39.997Z,100.00
2022-09-01T21:17:14.303Z,100.00
2022-09-01T21:19:52.549Z,100.00
2022-09-01T21:22:22.431Z,100.00
2022-09-01T21:24:50.568Z,100.00
2022-09-01T21:27:20.257Z,100.00
2022-09-01T21:29:55.295Z,100.00
2022-09-01T21:32:23.622Z,100.00
2022-09-01T21:34:52.956Z,100.00
2022-09-01T21:37:22.376Z,100.00
2022-09-01T21:39:53.094Z,100.00
2022-09-01T21:42:23.276Z,100.00
2022-09-01T21:44:54.301Z,100.00
2022-09-01T21:47:22.333Z,100.00
2022-09-01T21:49:49.935Z,100.00
2022-09-01T21:52:17.591Z,100.00
2022-09-01T21:54:45.149Z,100.00
2022-09-01T21:57:12.624Z,100.00
2022-09-01T21:59:40.121Z,100.00
2022-09-01T22:02:08.995Z,100.00
2022-09-01T22:04:37.407Z,100.00
2022-09-01T22:07:08.236Z,100.00
2022-09-01T22:09:35.841Z,100.00
2022-09-01T22:12:03.966Z,100.00
2022-09-01T22:14:31.427Z,100.00
2022-09-01T22:17:03.961Z,100.00
2022-09-01T22:19:35.297Z,100.00
2022-09-01T22:22:03.125Z,100.00
2022-09-01T22:24:30.623Z,100.00
2022-09-01T22:26:58.147Z,100.00
2022-09-01T22:29:25.998Z,100.00
2022-09-01T22:31:53.703Z,100.00
2022-09-01T22:34:21.190Z,100.00
2022-09-01T22:36:50.789Z,100.00
2022-09-01T22:39:19.315Z,100.00
2022-09-01T22:41:49.376Z,100.00
2022-09-01T22:44:16.987Z,100.00
2022-09-01T22:46:44.583Z,100.00
2022-09-01T22:49:13.120Z,100.00
2022-09-01T22:51:42.587Z,100.00
2022-09-01T22:54:12.271Z,100.00
2022-09-01T22:56:41.619Z,100.00
2022-09-01T22:59:11.614Z,100.00
2022-09-01T23:01:42.338Z,100.00
2022-09-01T23:04:12.953Z,100.00
2022-09-01T23:06:43.667Z,100.00
2022-09-01T23:09:13.056Z,100.00
2022-09-01T23:11:41.342Z,100.00
2022-09-01T23:14:08.841Z,100.00
2022-09-01T23:16:36.726Z,100.00
2022-09-01T23:19:04.885Z,100.00
2022-09-01T23:21:34.530Z,100.00
2022-09-01T23:24:02.595Z,100.00
2022-09-01T23:26:32.739Z,100.00
2022-09-01T23:29:00.627Z,100.00
2022-09-01T23:31:30.548Z,100.00
2022-09-01T23:33:58.784Z,100.00
2022-09-01T23:36:28.118Z,100.00
2022-09-01T23:38:56.233Z,100.00
2022-09-01T23:41:33.143Z,100.00
2022-09-01T23:44:03.320Z,100.00
2022-09-01T23:46:33.266Z,100.00
2022-09-01T23:49:02.208Z,100.00
2022-09-01T23:51:29.976Z,100.00
2022-09-01T23:53:58.096Z,100.00
2022-09-01T23:56:27.434Z,100.00
2022-09-01T23:58:56.643Z,100.00
